Central City, Missouri
Current Conditions -  °F | °C
As of 5:53 PM on Wednesday 22 Oct 2014 (Local Time) from KJLN Reporting Station
Few Clouds Few Clouds  
Wind Chill: 71°   Ceiling: Unl
Heat Index: 71°   Visibility: 10mi
Dew Point: 56°   Wind: 9mph
Humidity: 59%   Direction: 110°ESE
Pressure: 30.12"   Gusts: NA
Location:  37.1074°N, 94.5218°W
Report Text: KJLN 222253Z 11008KT 10SM FEW042 22/13 A3012 RMK AO2 SLP194 T02170133
Loading
Personal Weather Stations






























Interactive Weather Map
Tropical Storm Tracking
New forecast layout! Learn more

10-Day Weather Forecast

Advertisements
Track Severe Weather on mobile